createdAt,value
2018-05-03T00:02:13.769Z,99.90
2018-05-03T00:04:40.684Z,99.90
2018-05-03T00:07:07.548Z,99.90
2018-05-03T00:09:34.545Z,99.90
2018-05-03T00:12:01.473Z,99.90
2018-05-03T00:14:28.320Z,99.90
2018-05-03T00:16:55.260Z,99.90
2018-05-03T00:19:22.114Z,99.90
2018-05-03T00:21:49.037Z,99.90
2018-05-03T00:24:15.902Z,99.90
2018-05-03T00:26:42.857Z,99.90
2018-05-03T00:29:09.718Z,99.90
2018-05-03T00:31:36.586Z,99.90
2018-05-03T00:34:03.497Z,99.90
2018-05-03T00:36:30.357Z,99.90
2018-05-03T00:38:57.287Z,99.90
2018-05-03T00:41:24.153Z,99.90
2018-05-03T00:43:51.813Z,99.90
2018-05-03T00:46:18.737Z,99.90
2018-05-03T00:48:45.653Z,99.90
2018-05-03T00:51:12.498Z,99.90
2018-05-03T00:53:39.423Z,99.90
2018-05-03T00:56:06.341Z,99.90
2018-05-03T00:58:33.187Z,99.90
2018-05-03T01:01:00.143Z,99.90
2018-05-03T01:03:27.817Z,99.90
2018-05-03T01:05:54.670Z,99.90
2018-05-03T01:08:21.605Z,99.90
2018-05-03T01:10:48.510Z,99.90
2018-05-03T01:13:15.450Z,99.90
2018-05-03T01:15:42.320Z,99.90
2018-05-03T01:18:09.243Z,99.90
2018-05-03T01:20:36.148Z,99.90
2018-05-03T01:23:03.081Z,99.90
2018-05-03T01:25:29.946Z,99.90
2018-05-03T01:27:56.814Z,99.90
2018-05-03T01:30:23.753Z,99.90
2018-05-03T01:32:50.610Z,99.90
2018-05-03T01:35:29.587Z,99.90
2018-05-03T01:37:56.447Z,99.90
2018-05-03T01:40:23.373Z,99.90
2018-05-03T01:42:50.294Z,99.90
2018-05-03T01:45:17.214Z,99.90
2018-05-03T01:47:44.142Z,99.90
2018-05-03T01:50:11.077Z,99.90
2018-05-03T01:52:37.929Z,99.90
2018-05-03T01:55:04.790Z,99.90
2018-05-03T01:57:31.713Z,99.90
2018-05-03T01:59:58.632Z,99.90
2018-05-03T02:02:26.307Z,99.90
2018-05-03T02:04:53.172Z,99.90
2018-05-03T02:07:20.025Z,99.90
2018-05-03T02:09:47.014Z,99.90
2018-05-03T02:12:14.641Z,99.90
2018-05-03T02:14:41.565Z,99.90
2018-05-03T02:17:08.485Z,99.90
2018-05-03T02:19:35.406Z,99.90
2018-05-03T02:22:02.341Z,99.90
2018-05-03T02:24:29.202Z,99.90
2018-05-03T02:26:56.121Z,99.90
2018-05-03T02:29:23.090Z,99.90
2018-05-03T02:31:50.074Z,99.90
2018-05-03T02:34:16.942Z,99.90
2018-05-03T02:36:43.866Z,99.90
2018-05-03T02:39:10.787Z,99.90
2018-05-03T02:41:37.722Z,99.90
2018-05-03T02:44:04.657Z,99.90
2018-05-03T02:46:31.520Z,99.90
2018-05-03T02:48:58.449Z,99.90
2018-05-03T02:51:25.306Z,99.90
2018-05-03T02:53:52.246Z,99.90
2018-05-03T02:56:19.168Z,99.90
2018-05-03T02:58:58.291Z,99.90
2018-05-03T03:01:43.250Z,99.90
2018-05-03T03:04:28.314Z,99.90
2018-05-03T03:07:13.265Z,99.90
2018-05-03T03:23:37.949Z,99.90
2018-05-03T03:26:23.690Z,99.90
2018-05-03T03:29:08.760Z,99.90
2018-05-03T03:31:53.952Z,99.90
2018-05-03T03:34:27.872Z,99.90
2018-05-03T03:37:14.718Z,99.90
2018-05-03T03:40:08.461Z,99.90
2018-05-03T03:43:06.001Z,99.90
2018-05-03T03:45:32.997Z,99.90
2018-05-03T03:48:00.682Z,99.90
2018-05-03T03:50:27.613Z,99.90
2018-05-03T03:52:54.497Z,99.90
2018-05-03T03:55:21.426Z,99.90
2018-05-03T03:57:48.316Z,99.90
2018-05-03T04:00:15.240Z,99.90
2018-05-03T04:02:42.200Z,99.90
2018-05-03T04:05:09.096Z,99.90
2018-05-03T04:07:36.001Z,99.90
2018-05-03T04:10:03.075Z,99.90
2018-05-03T04:12:30.013Z,99.90
2018-05-03T04:14:57.748Z,99.90
2018-05-03T04:17:36.732Z,99.90
2018-05-03T04:20:15.815Z,99.90
2018-05-03T04:22:57.736Z,99.90
2018-05-03T04:25:37.477Z,99.90
2018-05-03T04:28:20.741Z,99.90
2018-05-03T04:30:48.514Z,99.90
2018-05-03T04:33:15.359Z,99.90
2018-05-03T04:35:42.313Z,99.90
2018-05-03T04:38:22.052Z,99.90
2018-05-03T04:40:50.694Z,99.90
2018-05-03T04:43:18.567Z,99.90
2018-05-03T04:45:45.480Z,99.90
2018-05-03T04:48:15.650Z,99.90
2018-05-03T04:50:42.603Z,99.90
2018-05-03T04:53:09.511Z,99.90
2018-05-03T04:55:36.472Z,99.90
2018-05-03T04:58:04.085Z,99.90
2018-05-03T05:00:31.018Z,99.90
2018-05-03T05:02:57.885Z,99.90
2018-05-03T05:05:24.814Z,99.90
2018-05-03T05:07:51.722Z,99.90
2018-05-03T05:10:18.733Z,99.90
2018-05-03T05:12:58.433Z,99.90
2018-05-03T05:15:31.114Z,99.90
2018-05-03T05:17:58.120Z,99.90
2018-05-03T05:20:28.221Z,99.90
2018-05-03T05:22:55.145Z,99.90
2018-05-03T05:25:21.997Z,99.90
2018-05-03T05:27:48.917Z,99.90
2018-05-03T05:30:15.835Z,99.90
2018-05-03T05:32:43.517Z,99.90
2018-05-03T05:35:10.373Z,99.90
2018-05-03T05:37:37.299Z,99.90
2018-05-03T05:40:04.241Z,99.90
2018-05-03T05:42:31.895Z,99.90
2018-05-03T05:44:59.629Z,99.90
2018-05-03T05:47:26.499Z,99.90
2018-05-03T05:49:53.424Z,99.90
2018-05-03T05:52:20.278Z,99.90
2018-05-03T05:54:47.134Z,99.90
2018-05-03T05:57:14.160Z,99.90
2018-05-03T05:59:41.074Z,99.90
2018-05-03T06:02:07.940Z,99.90
2018-05-03T06:04:34.860Z,99.90
2018-05-03T06:07:01.725Z,99.90
2018-05-03T06:09:28.587Z,99.90
2018-05-03T06:11:55.509Z,99.90
2018-05-03T06:14:22.369Z,99.90
2018-05-03T06:16:49.305Z,99.90
2018-05-03T06:19:16.225Z,99.90
2018-05-03T06:21:43.893Z,99.90
2018-05-03T06:24:11.581Z,99.90
2018-05-03T06:26:38.543Z,99.90
2018-05-03T06:29:05.460Z,99.90
2018-05-03T06:31:32.391Z,99.90
2018-05-03T06:34:00.117Z,99.90
2018-05-03T06:36:27.574Z,99.90
2018-05-03T06:38:54.559Z,99.90
2018-05-03T06:41:22.149Z,99.90
2018-05-03T06:46:35.047Z,99.90
2018-05-03T06:49:02.965Z,99.90
2018-05-03T06:51:29.958Z,99.90
2018-05-03T06:53:56.816Z,99.90
2018-05-03T06:56:24.415Z,99.90
2018-05-03T06:58:51.341Z,99.90
2018-05-03T07:01:18.932Z,99.90
2018-05-03T07:03:45.876Z,99.90
2018-05-03T07:06:12.798Z,99.90
2018-05-03T07:08:40.471Z,99.90
2018-05-03T07:11:07.417Z,99.90
2018-05-03T07:13:34.377Z,99.90
2018-05-03T07:16:01.246Z,99.90
2018-05-03T07:18:28.113Z,99.90
2018-05-03T07:20:55.033Z,99.90
2018-05-03T07:23:21.886Z,99.90
2018-05-03T07:25:48.821Z,99.90
2018-05-03T07:28:15.800Z,99.90
2018-05-03T07:30:42.925Z,99.90
2018-05-03T07:33:13.788Z,99.90
2018-05-03T07:35:41.189Z,99.90
2018-05-03T07:38:09.202Z,99.90
2018-05-03T07:40:36.103Z,99.90
2018-05-03T07:43:03.072Z,99.90
2018-05-03T07:45:32.337Z,99.90
2018-05-03T07:47:59.265Z,99.90
2018-05-03T07:50:26.132Z,99.90
2018-05-03T07:52:54.926Z,99.90
2018-05-03T07:55:22.346Z,99.90
2018-05-03T07:57:49.342Z,99.90
2018-05-03T08:00:17.269Z,99.90
2018-05-03T08:02:44.221Z,99.90
2018-05-03T08:05:11.904Z,99.90
2018-05-03T08:07:38.753Z,99.90
2018-05-03T08:10:05.673Z,99.90
2018-05-03T08:12:32.613Z,99.90
2018-05-03T08:14:59.670Z,99.90
2018-05-03T08:17:26.884Z,99.90
2018-05-03T08:19:57.130Z,99.90
2018-05-03T08:22:24.068Z,99.90
2018-05-03T08:24:51.253Z,99.90
2018-05-03T08:27:18.729Z,99.90
2018-05-03T08:29:46.381Z,99.90
2018-05-03T08:32:15.432Z,99.90
2018-05-03T08:34:44.995Z,99.90
2018-05-03T08:37:13.770Z,99.90
2018-05-03T08:39:41.157Z,99.90
2018-05-03T08:42:09.771Z,99.90
2018-05-03T08:44:38.240Z,99.90
2018-05-03T08:47:05.756Z,99.90
2018-05-03T08:49:34.703Z,99.90
2018-05-03T08:52:02.514Z,99.90
2018-05-03T08:54:29.837Z,99.90
2018-05-03T08:56:58.866Z,99.90
2018-05-03T08:59:26.835Z,99.90
2018-05-03T09:01:54.189Z,99.90
2018-05-03T09:04:22.261Z,99.90
2018-05-03T09:06:50.028Z,99.90
2018-05-03T09:09:17.480Z,99.90
2018-05-03T09:11:44.501Z,99.90
2018-05-03T09:14:11.346Z,99.90
2018-05-03T09:16:38.261Z,99.90
2018-05-03T09:19:05.191Z,99.90
2018-05-03T09:21:32.112Z,99.90
2018-05-03T09:23:59.734Z,99.90
2018-05-03T09:26:27.372Z,99.90
2018-05-03T09:28:55.616Z,99.90
2018-05-03T09:31:22.604Z,99.90
2018-05-03T09:33:50.430Z,99.70
2018-05-03T09:36:18.569Z,99.60
2018-05-03T09:38:46.476Z,99.50
2018-05-03T09:41:15.468Z,99.00
2018-05-03T09:43:43.543Z,99.30
2018-05-03T09:46:11.817Z,99.50
2018-05-03T09:48:40.170Z,99.50
2018-05-03T09:51:07.900Z,98.80
2018-05-03T09:53:34.903Z,98.80
2018-05-03T09:56:01.830Z,98.80
2018-05-03T09:58:28.773Z,98.80
2018-05-03T10:00:55.643Z,98.50
2018-05-03T10:03:23.241Z,98.20
2018-05-03T10:05:50.177Z,98.20
2018-05-03T10:08:18.087Z,97.70
2018-05-03T10:10:46.751Z,97.20
2018-05-03T10:13:13.751Z,97.20
2018-05-03T10:15:40.733Z,96.80
2018-05-03T10:18:07.681Z,96.40
2018-05-03T10:20:34.581Z,95.10
2018-05-03T10:23:01.424Z,95.90
2018-05-03T10:25:28.363Z,95.40
2018-05-03T10:27:55.955Z,94.00
2018-05-03T10:30:29.569Z,93.80
2018-05-03T10:32:59.609Z,95.30
2018-05-03T10:35:28.269Z,94.60
2018-05-03T10:37:55.136Z,94.50
2018-05-03T10:40:22.075Z,93.80
2018-05-03T10:42:52.714Z,94.50
2018-05-03T10:45:19.607Z,93.50
2018-05-03T10:47:46.521Z,92.20
2018-05-03T10:50:13.382Z,91.50
2018-05-03T10:52:40.372Z,90.60
2018-05-03T10:55:07.244Z,90.60
2018-05-03T10:57:34.131Z,90.10
2018-05-03T11:00:01.814Z,91.40
2018-05-03T11:02:29.418Z,89.30
2018-05-03T11:04:56.352Z,89.40
2018-05-03T11:07:23.317Z,89.00
2018-05-03T11:09:50.185Z,89.70
2018-05-03T11:12:17.132Z,87.30
2018-05-03T11:14:44.073Z,90.00
2018-05-03T11:17:10.948Z,85.60
2018-05-03T11:19:37.876Z,85.30
2018-05-03T11:22:06.506Z,88.10
2018-05-03T11:24:33.465Z,90.00
2018-05-03T11:27:00.410Z,89.40
2018-05-03T11:29:27.595Z,89.00
2018-05-03T11:31:55.442Z,84.10
2018-05-03T11:34:23.156Z,85.80
2018-05-03T11:36:53.225Z,83.70
2018-05-03T11:39:32.871Z,84.40
2018-05-03T11:42:16.012Z,82.80
2018-05-03T11:44:45.874Z,82.30
2018-05-03T11:47:14.118Z,81.80
2018-05-03T11:49:40.969Z,81.20
2018-05-03T11:52:08.586Z,83.20
2018-05-03T11:54:39.515Z,83.30
2018-05-03T11:57:09.816Z,82.50
2018-05-03T11:59:39.717Z,82.20
2018-05-03T12:02:09.765Z,83.10
2018-05-03T12:04:40.818Z,82.20
2018-05-03T12:07:11.261Z,83.00
2018-05-03T12:09:41.929Z,82.60
2018-05-03T12:12:09.076Z,82.60
2018-05-03T12:14:44.683Z,84.00
2018-05-03T12:17:12.760Z,85.90
2018-05-03T12:19:41.838Z,84.70
2018-05-03T12:22:15.064Z,81.70
2018-05-03T12:24:50.934Z,85.30
2018-05-03T12:27:17.853Z,83.70
2018-05-03T12:29:44.773Z,83.80
2018-05-03T12:32:13.633Z,81.60
2018-05-03T12:34:40.563Z,82.90
2018-05-03T12:37:07.431Z,79.30
2018-05-03T12:39:35.094Z,79.80
2018-05-03T12:42:02.024Z,79.90
2018-05-03T12:44:37.035Z,84.40
2018-05-03T12:47:10.545Z,81.50
2018-05-03T12:49:37.549Z,82.10
2018-05-03T12:52:07.733Z,81.60
2018-05-03T12:54:39.000Z,82.10
2018-05-03T12:57:06.518Z,82.30
2018-05-03T12:59:33.441Z,83.50
2018-05-03T13:02:01.599Z,83.30
2018-05-03T13:04:28.461Z,82.30
2018-05-03T13:06:57.596Z,82.40
2018-05-03T13:09:24.785Z,81.10
2018-05-03T13:11:54.751Z,81.40
2018-05-03T13:14:27.321Z,82.20
2018-05-03T13:16:54.776Z,82.00
2018-05-03T13:19:21.694Z,80.90
2018-05-03T13:21:52.673Z,81.10
2018-05-03T13:24:19.522Z,78.60
2018-05-03T13:26:47.584Z,80.40
2018-05-03T13:29:14.482Z,82.10
2018-05-03T13:31:42.434Z,79.80
2018-05-03T13:34:09.285Z,79.70
2018-05-03T13:36:37.186Z,81.20
2018-05-03T13:39:05.104Z,81.20
2018-05-03T13:41:32.007Z,80.20
2018-05-03T13:44:00.689Z,81.40
2018-05-03T13:46:27.609Z,82.70
2018-05-03T13:49:01.252Z,81.10
2018-05-03T13:51:28.232Z,81.10
2018-05-03T13:53:57.669Z,80.20
2018-05-03T13:56:26.301Z,79.60
2018-05-03T13:59:03.295Z,79.90
2018-05-03T14:01:30.606Z,78.50
2018-05-03T14:03:57.527Z,78.80
2018-05-03T14:06:25.133Z,79.50
2018-05-03T14:08:54.245Z,80.00
2018-05-03T14:11:29.148Z,79.20
2018-05-03T14:13:56.013Z,79.30
2018-05-03T14:16:23.723Z,79.60
2018-05-03T14:18:52.841Z,77.40
2018-05-03T14:21:19.829Z,77.30
2018-05-03T14:23:46.712Z,77.70
2018-05-03T14:26:20.529Z,80.00
2018-05-03T14:28:48.425Z,78.70
2018-05-03T14:31:15.830Z,78.70
2018-05-03T14:33:43.413Z,77.40
2018-05-03T14:36:15.078Z,79.70
2018-05-03T14:38:43.717Z,78.50
2018-05-03T14:41:21.347Z,77.60
2018-05-03T14:43:57.832Z,78.80
2018-05-03T14:46:25.014Z,79.30
2018-05-03T14:49:04.801Z,79.20
2018-05-03T14:51:43.850Z,80.60
2018-05-03T14:54:20.594Z,80.70
2018-05-03T14:57:01.193Z,81.60
2018-05-03T14:59:42.923Z,82.90
2018-05-03T15:02:22.400Z,82.30
2018-05-03T15:05:03.913Z,81.60
2018-05-03T15:07:47.003Z,79.80
2018-05-03T15:10:24.637Z,79.60
2018-05-03T15:13:05.981Z,79.30
2018-05-03T15:15:48.172Z,81.00
2018-05-03T15:18:29.491Z,78.50
2018-05-03T15:23:49.713Z,81.50
2018-05-03T15:26:31.742Z,81.80
2018-05-03T15:29:16.288Z,82.00
2018-05-03T15:31:55.316Z,82.00
2018-05-03T15:37:18.885Z,81.30
2018-05-03T15:40:02.960Z,80.20
2018-05-03T15:42:44.624Z,79.40
2018-05-03T15:45:27.362Z,80.40
2018-05-03T15:48:09.466Z,80.80
2018-05-03T15:50:52.014Z,80.40
2018-05-03T15:53:34.000Z,80.30
2018-05-03T15:56:14.042Z,78.10
2018-05-03T15:58:56.230Z,78.80
2018-05-03T16:01:35.471Z,79.90
2018-05-03T16:04:15.999Z,79.90
2018-05-03T16:06:58.028Z,78.80
2018-05-03T16:09:38.703Z,79.30
2018-05-03T16:12:21.913Z,79.10
2018-05-03T16:14:50.922Z,79.20
2018-05-03T16:17:24.493Z,80.10
2018-05-03T16:19:52.483Z,78.90
2018-05-03T16:22:21.344Z,81.20
2018-05-03T16:24:48.260Z,81.30
2018-05-03T16:27:25.072Z,81.00
2018-05-03T16:29:51.994Z,81.20
2018-05-03T16:32:18.834Z,80.70
2018-05-03T16:34:45.685Z,79.80
2018-05-03T16:37:12.611Z,80.70
2018-05-03T16:39:39.465Z,80.00
2018-05-03T16:42:06.380Z,79.90
2018-05-03T16:44:33.973Z,79.70
2018-05-03T16:47:06.360Z,79.10
2018-05-03T16:49:33.530Z,79.00
2018-05-03T16:52:00.501Z,79.00
2018-05-03T16:54:27.377Z,79.00
2018-05-03T16:56:54.307Z,78.90
2018-05-03T16:59:22.035Z,80.90
2018-05-03T17:01:48.888Z,80.80
2018-05-03T17:04:17.167Z,80.60
2018-05-03T17:06:44.097Z,80.30
2018-05-03T17:09:11.049Z,80.50
2018-05-03T17:11:39.790Z,80.00
2018-05-03T17:14:07.553Z,79.80
2018-05-03T17:16:34.954Z,79.70
2018-05-03T17:19:01.825Z,80.30
2018-05-03T17:21:29.604Z,81.10
2018-05-03T17:23:56.481Z,81.20
2018-05-03T17:26:26.185Z,81.30
2018-05-03T17:28:53.708Z,81.20
2018-05-03T17:31:20.616Z,81.50
2018-05-03T17:33:50.414Z,81.10
2018-05-03T17:36:18.290Z,82.40
2018-05-03T17:38:45.214Z,81.90
2018-05-03T17:41:12.065Z,82.70
2018-05-03T17:43:40.124Z,83.10
2018-05-03T17:46:14.871Z,82.40
2018-05-03T17:48:43.149Z,81.40
2018-05-03T17:51:11.546Z,81.50
2018-05-03T17:53:38.356Z,81.20
2018-05-03T17:56:09.260Z,83.20
2018-05-03T17:58:40.973Z,82.60
2018-05-03T18:01:07.905Z,82.60
2018-05-03T18:03:40.611Z,82.50
2018-05-03T18:06:12.380Z,83.00
2018-05-03T18:08:40.114Z,82.70
2018-05-03T18:11:09.359Z,83.40
2018-05-03T18:13:36.233Z,82.60
2018-05-03T18:16:03.345Z,82.40
2018-05-03T18:18:30.280Z,82.90
2018-05-03T18:20:58.263Z,82.50
2018-05-03T18:23:27.704Z,83.20
2018-05-03T18:25:54.763Z,84.10
2018-05-03T18:28:21.669Z,83.40
2018-05-03T18:30:49.132Z,83.50
2018-05-03T18:33:17.893Z,83.70
2018-05-03T18:35:44.921Z,83.40
2018-05-03T18:38:11.847Z,83.60
2018-05-03T18:40:38.781Z,83.80
2018-05-03T18:43:06.378Z,83.50
2018-05-03T18:45:33.292Z,83.40
2018-05-03T18:48:01.005Z,84.20
2018-05-03T18:50:27.936Z,84.20
2018-05-03T18:52:54.810Z,84.40
2018-05-03T18:55:21.744Z,84.70
2018-05-03T18:57:48.665Z,84.60
2018-05-03T19:00:15.613Z,84.90
2018-05-03T19:02:42.635Z,85.40
2018-05-03T19:05:10.302Z,85.70
2018-05-03T19:07:37.922Z,85.80
2018-05-03T19:10:04.981Z,85.80
2018-05-03T19:12:31.864Z,86.00
2018-05-03T19:14:58.726Z,86.10
2018-05-03T19:17:25.660Z,85.80
2018-05-03T19:19:52.538Z,86.10
2018-05-03T19:22:19.435Z,86.10
2018-05-03T19:24:46.411Z,86.30
2018-05-03T19:27:13.335Z,86.50
2018-05-03T19:29:40.401Z,86.80
2018-05-03T19:32:07.324Z,86.70
2018-05-03T19:34:34.914Z,86.80
2018-05-03T19:37:01.853Z,86.80
2018-05-03T19:39:28.796Z,87.00
2018-05-03T19:41:55.686Z,87.00
2018-05-03T19:44:22.646Z,87.80
2018-05-03T19:46:50.256Z,87.80
2018-05-03T19:49:17.161Z,87.10
2018-05-03T19:51:44.129Z,87.30
2018-05-03T19:54:11.013Z,87.40
2018-05-03T19:56:37.958Z,87.50
2018-05-03T19:59:04.833Z,87.60
2018-05-03T20:01:31.870Z,87.40
2018-05-03T20:03:58.756Z,87.20
2018-05-03T20:06:25.698Z,87.50
2018-05-03T20:08:53.560Z,87.70
2018-05-03T20:11:22.656Z,87.60
2018-05-03T20:13:49.731Z,87.40
2018-05-03T20:16:16.723Z,87.10
2018-05-03T20:18:43.647Z,86.90
2018-05-03T20:21:11.260Z,86.80
2018-05-03T20:23:38.168Z,86.90
2018-05-03T20:26:05.116Z,86.30
2018-05-03T20:28:31.970Z,86.40
2018-05-03T20:31:00.870Z,86.50
2018-05-03T20:33:30.241Z,86.70
2018-05-03T20:35:58.166Z,86.40
2018-05-03T20:38:36.686Z,86.30
2018-05-03T20:41:04.402Z,86.00
2018-05-03T20:43:33.335Z,85.30
2018-05-03T20:46:01.329Z,85.00
2018-05-03T20:48:28.618Z,84.40
2018-05-03T20:50:55.550Z,84.30
2018-05-03T20:53:22.479Z,83.60
2018-05-03T20:55:49.358Z,83.70
2018-05-03T20:58:16.375Z,83.00
2018-05-03T21:00:43.310Z,83.30
2018-05-03T21:03:10.175Z,83.00
2018-05-03T21:05:37.094Z,82.80
2018-05-03T21:08:04.029Z,83.00
2018-05-03T21:10:31.650Z,82.60
2018-05-03T21:12:58.601Z,82.60
2018-05-03T21:15:25.537Z,82.10
2018-05-03T21:17:52.405Z,82.60
2018-05-03T21:20:19.349Z,82.30
2018-05-03T21:22:46.215Z,81.90
2018-05-03T21:25:13.969Z,82.30
2018-05-03T21:27:40.865Z,82.20
2018-05-03T21:30:07.778Z,82.00
2018-05-03T21:32:34.725Z,81.90
2018-05-03T21:35:02.343Z,82.10
2018-05-03T21:37:29.272Z,82.00
2018-05-03T21:39:56.141Z,82.70
2018-05-03T21:42:23.009Z,82.10
2018-05-03T21:44:50.677Z,83.30
2018-05-03T21:47:18.277Z,82.90
2018-05-03T21:49:45.196Z,82.90
2018-05-03T21:52:12.057Z,83.50
2018-05-03T21:54:38.991Z,83.20
2018-05-03T21:57:05.921Z,83.60
2018-05-03T21:59:33.590Z,83.90
2018-05-03T22:02:01.257Z,84.20
2018-05-03T22:04:28.937Z,84.50
2018-05-03T22:06:55.865Z,84.40
2018-05-03T22:09:22.783Z,85.20
2018-05-03T22:11:49.641Z,84.80
2018-05-03T22:14:17.306Z,85.10
2018-05-03T22:16:44.913Z,85.30
2018-05-03T22:19:11.896Z,85.30
2018-05-03T22:21:38.750Z,85.60
2018-05-03T22:24:05.729Z,85.50
2018-05-03T22:26:32.589Z,85.80
2018-05-03T22:28:59.510Z,85.90
2018-05-03T22:31:26.388Z,85.90
2018-05-03T22:33:53.305Z,86.00
2018-05-03T22:36:20.168Z,86.20
2018-05-03T22:38:47.041Z,86.50
2018-05-03T22:41:13.967Z,86.50
2018-05-03T22:43:40.829Z,87.00
2018-05-03T22:46:07.757Z,87.20
2018-05-03T22:48:34.622Z,87.60
2018-05-03T22:51:01.559Z,87.40
2018-05-03T22:53:28.404Z,87.50
2018-05-03T22:55:55.252Z,87.90
2018-05-03T22:58:22.250Z,88.00
2018-05-03T23:00:49.221Z,87.90
2018-05-03T23:03:16.069Z,88.20
2018-05-03T23:05:42.991Z,88.40
2018-05-03T23:08:09.853Z,88.70
2018-05-03T23:10:36.776Z,88.80
2018-05-03T23:13:03.685Z,89.00
2018-05-03T23:15:30.634Z,89.10
2018-05-03T23:17:57.493Z,89.20
2018-05-03T23:20:25.173Z,89.80
2018-05-03T23:22:52.762Z,89.80
2018-05-03T23:25:19.633Z,89.80
2018-05-03T23:27:46.574Z,90.00
2018-05-03T23:30:13.492Z,90.10
2018-05-03T23:32:40.420Z,90.20
2018-05-03T23:35:07.310Z,90.10
2018-05-03T23:37:34.255Z,90.40
2018-05-03T23:40:01.117Z,90.50
2018-05-03T23:42:28.065Z,90.60
2018-05-03T23:44:54.935Z,90.60
2018-05-03T23:47:22.599Z,90.80
2018-05-03T23:49:50.197Z,90.80
2018-05-03T23:52:17.069Z,90.80
2018-05-03T23:54:44.000Z,91.10
2018-05-03T23:57:11.649Z,91.20
2018-05-03T23:59:38.631Z,91.10
